Time;durP1;ratioP1;P1;durP2;ratioP2;P2;SDS_P1;SDS_P2;PMS_P1;PMS_P2;Temp;Humidity;BMP_temperature;BMP_pressure;BME280_temperature;BME280_humidity;BME280_pressure;Samples;Min_cycle;Max_cycle;Signal;HPM_P1;HPM_P2
2021/12/23 00:01:07;;;;;;;9.13;6.25;;;;;;;15.50;35.60;93509.16;4995052;28;20038;-89
2021/12/23 00:03:32;;;;;;;9.38;5.40;;;;;;;15.48;35.81;93503.47;5004995;28;20045;-89
2021/12/23 00:05:58;;;;;;;8.27;5.85;;;;;;;15.44;35.69;93501.72;4979382;28;20040;-89
2021/12/23 00:08:23;;;;;;;7.63;5.70;;;;;;;15.43;36.10;93494.78;4994395;28;20057;-89
2021/12/23 00:10:49;;;;;;;8.68;5.25;;;;;;;15.47;35.72;93491.06;4978480;28;20291;-90
2021/12/23 00:13:15;;;;;;;8.45;5.88;;;;;;;15.49;35.58;93477.72;4974985;28;20104;-89
2021/12/23 00:16:02;;;;;;;9.63;5.95;;;;;;;15.49;35.69;93485.88;4975608;28;20030;-89
2021/12/23 00:23:46;;;;;;;8.27;5.80;;;;;;;15.42;35.97;93485.13;4980596;28;20077;-89
2021/12/23 00:26:12;;;;;;;6.75;4.93;;;;;;;15.50;35.52;93484.66;4964664;28;20033;-89
2021/12/23 00:28:37;;;;;;;7.85;4.43;;;;;;;15.54;35.52;93474.28;4978677;28;20065;-88
2021/12/23 00:31:03;;;;;;;7.53;5.68;;;;;;;15.47;35.81;93485.63;4958160;28;20041;-89
2021/12/23 00:33:29;;;;;;;6.88;5.18;;;;;;;15.49;35.60;93464.84;4978548;28;20326;-89
2021/12/23 00:35:55;;;;;;;6.90;4.95;;;;;;;15.50;35.52;93469.06;4964311;28;20045;-89
2021/12/23 00:38:27;;;;;;;7.07;5.38;;;;;;;15.48;35.83;93457.16;4958885;28;20411;-88
2021/12/23 00:40:52;;;;;;;6.88;4.85;;;;;;;15.50;35.92;93471.03;4976185;28;20045;-89
2021/12/23 00:43:19;;;;;;;6.95;4.95;;;;;;;15.51;35.67;93456.19;4974659;28;20038;-88
2021/12/23 00:45:45;;;;;;;5.78;4.63;;;;;;;15.46;35.76;93459.63;4975472;28;20054;-88
2021/12/23 00:48:11;;;;;;;5.93;4.70;;;;;;;15.49;35.55;93445.75;4958130;28;20037;-89
2021/12/23 00:50:36;;;;;;;5.97;4.63;;;;;;;15.49;35.72;93445.03;4990813;28;20452;-88
2021/12/23 00:53:06;;;;;;;7.43;4.60;;;;;;;15.52;35.65;93446.78;4958380;28;20044;-89
2021/12/23 00:55:31;;;;;;;6.00;4.50;;;;;;;15.50;35.67;93454.69;4974716;28;20046;-89
2021/12/23 00:57:59;;;;;;;7.93;4.90;;;;;;;15.44;35.83;93439.06;4991314;28;20045;-90
2021/12/23 01:00:24;;;;;;;6.68;4.65;;;;;;;15.45;35.96;93437.09;4973824;28;20064;-90
2021/12/23 01:02:51;;;;;;;7.30;4.55;;;;;;;15.50;35.60;93449.25;4988691;28;20025;-89
2021/12/23 01:05:21;;;;;;;5.65;4.35;;;;;;;15.50;35.54;93449.97;4990658;28;20038;-94
2021/12/23 01:07:47;;;;;;;5.43;4.10;;;;;;;15.43;35.66;93455.91;4975447;28;20512;-88
2021/12/23 01:10:13;;;;;;;6.40;4.82;;;;;;;15.46;35.53;93465.06;4957964;28;20319;-90
2021/12/23 01:15:17;;;;;;;6.93;4.82;;;;;;;15.51;35.81;93461.63;4990768;28;20065;-89
2021/12/23 01:17:59;;;;;;;5.78;3.90;;;;;;;15.47;35.62;93447.50;4961011;28;20030;-89
2021/12/23 01:20:32;;;;;;;8.30;4.28;;;;;;;15.49;35.73;93453.19;4976444;28;20396;-91
2021/12/23 01:23:00;;;;;;;7.32;4.60;;;;;;;15.49;35.39;93453.94;4959105;28;20085;-89
2021/12/23 01:25:26;;;;;;;4.18;3.65;;;;;;;15.44;35.86;93463.56;4974400;28;20044;-89
2021/12/23 01:27:52;;;;;;;5.30;4.07;;;;;;;15.45;35.87;93450.69;4972533;28;20042;-89
2021/12/23 01:30:18;;;;;;;4.82;4.05;;;;;;;15.42;35.95;93448.94;4957523;28;20412;-88
2021/12/23 01:32:47;;;;;;;6.80;4.43;;;;;;;15.41;36.02;93447.47;4988038;28;20041;-89
2021/12/23 01:35:13;;;;;;;6.68;4.43;;;;;;;15.46;35.74;93452.19;4984967;28;20496;-89
2021/12/23 01:37:38;;;;;;;5.45;3.97;;;;;;;15.43;35.88;93443.03;4958534;28;20049;-89
2021/12/23 01:40:05;;;;;;;6.60;4.50;;;;;;;15.49;35.55;93437.59;4957479;28;20041;-88
2021/12/23 01:42:30;;;;;;;5.22;3.70;;;;;;;15.46;35.65;93446.75;4974445;28;20524;-89
2021/12/23 01:44:56;;;;;;;6.00;3.80;;;;;;;15.51;35.66;93437.84;4974702;28;20038;-90
2021/12/23 01:47:24;;;;;;;4.43;3.65;;;;;;;15.44;35.53;93432.88;4989876;28;20038;-89
2021/12/23 01:49:50;;;;;;;5.75;3.90;;;;;;;15.47;35.47;93426.44;4975390;28;20038;-89
2021/12/23 01:52:16;;;;;;;4.90;3.90;;;;;;;15.46;35.69;93435.09;4989041;28;20046;-89
2021/12/23 01:54:41;;;;;;;5.88;4.15;;;;;;;15.44;35.63;93430.88;4990972;28;20116;-91
2021/12/23 01:57:06;;;;;;;4.72;3.45;;;;;;;15.48;35.87;93427.19;4961323;28;20026;-89
2021/12/23 01:59:33;;;;;;;6.32;4.20;;;;;;;15.51;35.71;93426.22;4978311;28;20066;-89
2021/12/23 02:01:58;;;;;;;6.70;4.00;;;;;;;15.52;35.59;93428.44;4968309;28;20076;-89
2021/12/23 02:04:23;;;;;;;5.47;3.75;;;;;;;15.49;35.31;93423.22;4973381;28;20359;-89
2021/12/23 02:06:49;;;;;;;5.40;3.80;;;;;;;15.47;35.81;93426.44;4960805;28;20038;-92
2021/12/23 02:09:15;;;;;;;5.70;3.90;;;;;;;15.50;35.68;93422.75;4992690;28;20065;-89
2021/12/23 02:11:41;;;;;;;7.20;4.07;;;;;;;15.49;35.73;93415.81;4993320;28;20034;-89
2021/12/23 02:14:06;;;;;;;6.07;4.10;;;;;;;15.46;35.61;93418.75;4976546;28;20096;-89
2021/12/23 02:16:31;;;;;;;6.70;3.53;;;;;;;15.46;35.54;93405.13;5008945;28;20053;-91
2021/12/23 02:18:57;;;;;;;6.15;3.88;;;;;;;15.44;35.85;93408.34;4994556;28;20038;-89
2021/12/23 02:21:22;;;;;;;4.05;3.08;;;;;;;15.43;35.83;93398.69;4976654;28;20104;-88
2021/12/23 02:23:47;;;;;;;4.35;3.78;;;;;;;15.44;36.00;93398.19;4994317;28;20045;-89
2021/12/23 02:26:13;;;;;;;4.97;3.67;;;;;;;15.44;35.64;93376.41;4999585;28;20038;-89
2021/12/23 02:28:38;;;;;;;4.63;3.47;;;;;;;15.39;35.66;93379.09;4988753;28;20042;-89
2021/12/23 02:31:04;;;;;;;4.90;3.28;;;;;;;15.40;35.97;93386.03;4976903;28;20046;-89
2021/12/23 02:33:30;;;;;;;4.80;3.40;;;;;;;15.39;35.85;93388.03;4980646;28;20040;-93
2021/12/23 02:35:56;;;;;;;6.25;3.85;;;;;;;15.41;35.81;93379.38;5010173;28;20053;-91
2021/12/23 02:38:22;;;;;;;6.38;3.85;;;;;;;15.40;35.79;93381.34;4993069;28;20551;-89
2021/12/23 02:40:47;;;;;;;5.78;3.35;;;;;;;15.44;35.70;93376.41;4981519;28;20054;-89
2021/12/23 02:43:16;;;;;;;4.65;3.20;;;;;;;15.44;35.24;93378.38;5008980;28;20041;-89
2021/12/23 02:45:42;;;;;;;5.20;3.65;;;;;;;15.46;35.65;93367.75;4993387;28;20173;-89
2021/12/23 02:48:14;;;;;;;6.03;3.35;;;;;;;15.41;35.85;93376.63;4992898;28;20492;-89
2021/12/23 02:50:40;;;;;;;5.30;3.42;;;;;;;15.41;35.57;93366.50;4976771;28;20040;-90
2021/12/23 02:53:06;;;;;;;4.88;3.15;;;;;;;15.40;35.45;93367.72;4992047;28;20528;-89
2021/12/23 02:55:31;;;;;;;6.32;3.97;;;;;;;15.38;35.83;93359.31;4993719;28;20034;-89
2021/12/23 02:57:57;;;;;;;5.63;2.72;;;;;;;15.38;35.86;93358.56;5009485;28;20044;-89
2021/12/23 03:00:22;;;;;;;3.80;2.97;;;;;;;15.42;35.97;93353.63;5008393;28;20034;-89
2021/12/23 03:02:47;;;;;;;4.70;3.10;;;;;;;15.39;35.62;93363.50;5006745;28;20042;-88
2021/12/23 03:05:13;;;;;;;5.47;3.45;;;;;;;15.43;35.85;93355.09;4985085;28;20037;-88
2021/12/23 03:07:38;;;;;;;5.05;3.30;;;;;;;15.40;35.82;93359.56;4975095;28;20030;-89
2021/12/23 03:10:05;;;;;;;5.32;3.00;;;;;;;15.41;35.74;93352.13;5008712;28;20046;-90
2021/12/23 03:12:31;;;;;;;4.57;3.25;;;;;;;15.36;35.25;93361.06;4976507;28;20030;-89
2021/12/23 03:14:56;;;;;;;3.55;2.80;;;;;;;15.33;36.14;93356.59;5009616;28;20041;-90
2021/12/23 03:17:22;;;;;;;4.13;3.03;;;;;;;15.38;35.71;93344.94;4975023;28;20389;-89
2021/12/23 03:19:48;;;;;;;4.95;3.47;;;;;;;15.42;35.68;93350.91;4992938;28;20034;-89
2021/12/23 03:22:13;;;;;;;4.78;3.17;;;;;;;15.36;35.96;93340.00;4991889;28;20104;-89
2021/12/23 03:24:38;;;;;;;3.83;3.03;;;;;;;15.39;35.86;93344.44;4993021;28;20038;-89
2021/12/23 03:27:04;;;;;;;4.00;3.00;;;;;;;15.41;35.81;93339.25;4973133;28;20041;-89
2021/12/23 03:29:29;;;;;;;4.28;3.25;;;;;;;15.42;35.83;93343.47;5001111;28;20421;-88
2021/12/23 03:31:55;;;;;;;3.20;2.88;;;;;;;15.38;35.58;93344.94;4960162;28;20041;-90
2021/12/23 03:34:20;;;;;;;4.95;3.60;;;;;;;15.39;35.79;93333.56;4975898;28;20038;-92
2021/12/23 03:36:46;;;;;;;5.00;3.05;;;;;;;15.33;36.24;93338.25;4992114;28;20448;-89
2021/12/23 03:39:11;;;;;;;3.83;2.70;;;;;;;15.42;35.58;93348.16;4975643;28;20042;-90
2021/12/23 03:41:37;;;;;;;5.18;3.17;;;;;;;15.39;35.63;93354.59;4971983;28;20038;-89
2021/12/23 03:44:02;;;;;;;5.20;2.85;;;;;;;15.41;35.69;93344.69;4972644;28;20035;-89
2021/12/23 03:46:28;;;;;;;4.32;3.05;;;;;;;15.40;35.59;93335.03;4989149;28;20441;-89
2021/12/23 03:48:53;;;;;;;4.47;3.00;;;;;;;15.42;35.50;93305.34;4972944;28;20101;-89
2021/12/23 03:51:19;;;;;;;4.45;3.08;;;;;;;15.43;35.91;93301.38;4971947;28;20101;-88
2021/12/23 03:53:44;;;;;;;4.68;3.60;;;;;;;15.34;36.08;93298.91;5000550;28;20042;-92
2021/12/23 03:56:10;;;;;;;4.05;2.67;;;;;;;15.37;35.93;93303.34;4975736;28;20124;-89
2021/12/23 03:58:35;;;;;;;4.10;2.63;;;;;;;15.38;35.85;93323.88;4960206;28;20034;-89
2021/12/23 04:01:01;;;;;;;5.78;2.55;;;;;;;15.38;35.62;93328.59;4991897;28;20060;-89
2021/12/23 04:03:26;;;;;;;3.58;2.60;;;;;;;15.36;35.72;93320.94;4993537;28;20034;-89
2021/12/23 04:05:52;;;;;;;9.35;3.00;;;;;;;15.42;35.43;93320.94;4983294;28;20038;-89
2021/12/23 04:08:17;;;;;;;4.88;3.17;;;;;;;15.40;35.48;93298.88;4974929;28;20053;-89
2021/12/23 04:10:43;;;;;;;3.90;2.47;;;;;;;15.40;35.80;93301.59;4991696;28;20045;-89
2021/12/23 04:13:08;;;;;;;3.53;2.67;;;;;;;15.42;35.62;93310.03;4991125;28;20045;-88
2021/12/23 04:15:33;;;;;;;4.95;2.92;;;;;;;15.40;35.65;93304.34;4991795;28;20042;-89
2021/12/23 04:17:59;;;;;;;5.93;2.80;;;;;;;15.38;35.67;93298.63;4974146;28;20042;-90
2021/12/23 04:20:32;;;;;;;4.63;2.63;;;;;;;15.36;35.57;93296.44;4974430;28;20030;-88
2021/12/23 04:22:58;;;;;;;4.03;2.47;;;;;;;15.33;35.72;93310.28;4992755;28;20034;-89
2021/12/23 04:25:25;;;;;;;4.15;2.45;;;;;;;15.38;35.86;93306.81;4991469;28;20037;-89
2021/12/23 04:27:52;;;;;;;5.25;2.92;;;;;;;15.36;35.35;93303.84;4995127;28;20084;-88
2021/12/23 04:30:18;;;;;;;4.47;2.50;;;;;;;15.32;35.93;93301.38;4980428;28;20053;-89
2021/12/23 04:32:43;;;;;;;3.85;2.67;;;;;;;15.39;35.51;93292.69;4988307;28;20060;-89
2021/12/23 04:35:09;;;;;;;3.25;2.30;;;;;;;15.33;35.62;93278.34;4986419;28;20037;-88
2021/12/23 04:37:35;;;;;;;5.15;2.85;;;;;;;15.35;35.87;93297.66;4991340;28;20069;-88
2021/12/23 04:40:01;;;;;;;3.35;2.67;;;;;;;15.40;35.67;93294.19;4975308;28;20072;-91
2021/12/23 04:42:26;;;;;;;2.97;2.60;;;;;;;15.43;35.35;93289.72;4970248;28;20505;-90
2021/12/23 04:44:52;;;;;;;3.92;2.20;;;;;;;15.38;35.63;93276.84;4988283;28;20045;-89
2021/12/23 04:47:18;;;;;;;3.90;2.50;;;;;;;15.40;35.57;93275.13;4987556;28;20260;-89
2021/12/23 04:49:43;;;;;;;3.67;2.35;;;;;;;15.39;35.64;93292.69;4987632;28;20030;-89
2021/12/23 04:52:08;;;;;;;3.53;2.53;;;;;;;15.35;35.50;93280.59;5002204;28;20038;-89
2021/12/23 04:54:34;;;;;;;3.42;2.88;;;;;;;15.37;35.77;93297.88;5010919;28;20115;-89
2021/12/23 04:56:59;;;;;;;5.57;2.95;;;;;;;15.33;35.45;93289.25;4958786;28;20057;-89
2021/12/23 04:59:24;;;;;;;3.47;2.47;;;;;;;15.33;35.48;93283.06;4974418;28;20038;-92
2021/12/23 05:01:50;;;;;;;3.20;2.72;;;;;;;15.37;35.47;93289.00;4980839;28;20467;-89
2021/12/23 05:04:15;;;;;;;3.35;2.50;;;;;;;15.35;35.72;93280.59;5026480;28;20038;-90
2021/12/23 05:06:41;;;;;;;3.45;2.53;;;;;;;15.32;35.93;93274.13;4978452;28;20121;-93
2021/12/23 05:09:06;;;;;;;3.60;2.72;;;;;;;15.38;35.39;93257.78;4992914;28;20505;-90
2021/12/23 05:11:32;;;;;;;3.88;2.40;;;;;;;15.41;35.76;93257.53;4953709;28;20038;-88
2021/12/23 05:13:57;;;;;;;4.30;2.45;;;;;;;15.39;35.66;93251.84;4954397;28;20114;-89
2021/12/23 05:16:22;;;;;;;3.60;2.40;;;;;;;15.41;35.76;93270.41;4954014;28;20038;-88
2021/12/23 05:18:48;;;;;;;5.13;2.65;;;;;;;15.39;35.55;93259.25;4954648;28;20516;-87
2021/12/23 05:21:13;;;;;;;4.25;2.50;;;;;;;15.39;35.73;93240.94;4954028;28;20678;-86
2021/12/23 05:23:40;;;;;;;10.45;9.23;;;;;;;15.37;35.64;93232.53;4954424;28;20035;-87
2021/12/23 05:26:07;;;;;;;4.35;3.15;;;;;;;15.39;35.59;93251.09;4959179;28;20088;-86
2021/12/23 05:28:33;;;;;;;7.32;4.13;;;;;;;15.48;35.04;93256.31;4989111;28;20072;-86
2021/12/23 05:30:59;;;;;;;5.70;3.88;;;;;;;15.47;35.56;93248.63;4972626;28;20031;-88
2021/12/23 05:33:24;;;;;;;15.07;7.75;;;;;;;15.57;35.03;93247.19;4993177;28;20061;-93
2021/12/23 05:35:50;;;;;;;45.85;32.60;;;;;;;15.66;35.21;93250.38;4948857;28;20050;-87
2021/12/23 05:38:15;;;;;;;24.83;17.20;;;;;;;15.69;35.77;93240.47;4958483;28;20070;-87
2021/12/23 05:40:41;;;;;;;31.40;20.80;;;;;;;15.71;35.50;93240.72;4963809;28;20038;-86
2021/12/23 05:43:06;;;;;;;74.57;32.30;;;;;;;15.72;35.64;93240.22;4993522;28;20437;-86
2021/12/23 05:45:32;;;;;;;50.05;15.77;;;;;;;15.72;35.56;93250.38;5026492;28;20038;-88
2021/12/23 05:47:57;;;;;;;30.88;10.93;;;;;;;15.72;36.36;93258.56;5002137;28;20088;-88
2021/12/23 05:50:24;;;;;;;18.05;9.23;;;;;;;15.62;35.52;93249.13;5000399;28;20038;-89
2021/12/23 05:52:50;;;;;;;17.35;8.75;;;;;;;15.59;35.48;93239.97;5023147;28;20037;-95
2021/12/23 05:55:24;;;;;;;53.67;14.10;;;;;;;15.44;32.69;93217.66;5016678;28;20365;-94
2021/12/23 05:57:49;;;;;;;36.20;13.63;;;;;;;15.34;32.48;93222.63;5034966;28;20416;-92
2021/12/23 06:00:26;;;;;;;43.38;13.55;;;;;;;15.43;33.34;93235.25;5005679;28;20048;-91
2021/12/23 06:02:52;;;;;;;28.55;12.88;;;;;;;15.41;33.52;93221.38;5038625;28;20747;-89
2021/12/23 06:05:18;;;;;;;44.33;15.75;;;;;;;15.56;34.04;93213.75;4999106;28;20080;-88
2021/12/23 06:07:44;;;;;;;43.55;18.10;;;;;;;15.53;34.77;93213.97;4977116;28;20041;-89
2021/12/23 06:10:09;;;;;;;53.05;23.02;;;;;;;15.57;34.57;93206.31;5012949;28;20099;-89
2021/12/23 06:12:35;;;;;;;91.65;33.75;;;;;;;15.56;34.76;93213.00;4976727;28;20121;-91
2021/12/23 06:15:00;;;;;;;71.57;27.08;;;;;;;15.51;34.47;93206.28;4981652;28;20104;-88
2021/12/23 06:17:26;;;;;;;123.85;36.53;;;;;;;15.55;34.63;93211.50;4978302;28;20054;-90
2021/12/23 06:19:51;;;;;;;90.72;35.22;;;;;;;15.51;34.79;93219.91;4957603;28;20044;-90
2021/12/23 06:22:29;;;;;;;107.72;38.70;;;;;;;15.52;34.64;93223.38;4980277;28;20660;-91
2021/12/23 06:24:54;;;;;;;120.20;41.85;;;;;;;15.51;34.64;93222.63;4973327;28;20041;-90
2021/12/23 06:27:20;;;;;;;107.38;40.45;;;;;;;15.48;34.86;93218.16;4985641;28;20056;-90
2021/12/23 06:29:47;;;;;;;107.30;39.80;;;;;;;15.47;34.77;93207.78;4975068;28;20082;-91
2021/12/23 06:32:12;;;;;;;102.25;38.35;;;;;;;15.51;34.25;93205.53;4989703;28;20053;-89
2021/12/23 06:34:38;;;;;;;93.80;27.08;;;;;;;15.28;30.38;93216.44;4965897;28;20121;-91
2021/12/23 06:37:04;;;;;;;592.20;60.05;;;;;;;15.26;29.64;93220.91;4996939;28;20033;-89
2021/12/23 06:39:33;;;;;;;424.58;48.28;;;;;;;15.23;29.72;93214.47;4960922;28;20052;-92
2021/12/23 06:41:58;;;;;;;115.22;28.85;;;;;;;15.17;27.46;93216.41;4963613;28;20054;-92
2021/12/23 06:44:23;;;;;;;161.40;35.47;;;;;;;15.12;27.85;93216.44;4977834;28;20045;-90
2021/12/23 06:46:49;;;;;;;143.63;37.20;;;;;;;15.15;26.91;93205.31;4995232;28;20539;-89
2021/12/23 06:49:17;;;;;;;133.85;34.70;;;;;;;15.03;27.55;93206.53;4981553;28;20058;-92
2021/12/23 06:51:42;;;;;;;175.50;44.67;;;;;;;15.08;27.10;93211.22;4975509;28;20026;-91
2021/12/23 06:54:10;;;;;;;230.02;60.60;;;;;;;15.09;27.79;93213.47;4969869;28;20544;-90
2021/12/23 06:56:35;;;;;;;250.60;66.25;;;;;;;15.13;28.31;93220.66;4975863;28;20037;-89
2021/12/23 06:59:01;;;;;;;171.85;52.28;;;;;;;15.11;30.50;93231.28;4994715;28;20038;-90
2021/12/23 07:01:26;;;;;;;166.13;48.03;;;;;;;15.24;31.31;93236.97;4978499;28;20054;-91
2021/12/23 07:06:22;;;;;;;160.48;47.97;;;;;;;15.24;31.67;93237.72;4978789;28;20119;-89
2021/12/23 07:08:47;;;;;;;117.28;39.70;;;;;;;15.21;29.39;93221.63;4962287;28;20665;-85
2021/12/23 07:11:13;;;;;;;166.93;77.00;;;;;;;15.11;29.64;93218.41;4971066;28;20045;-86
2021/12/23 07:13:38;;;;;;;97.75;39.05;;;;;;;15.20;29.45;93215.44;4991628;28;20037;-89
2021/12/23 07:16:04;;;;;;;225.80;112.22;;;;;;;15.24;30.12;93223.38;4975503;28;20042;-88
2021/12/23 07:18:29;;;;;;;127.97;51.97;;;;;;;15.24;30.86;93212.47;4959789;28;20046;-87
2021/12/23 07:20:55;;;;;;;130.23;60.38;;;;;;;15.27;29.59;93209.50;5026941;28;20056;-87
2021/12/23 07:23:21;;;;;;;101.15;45.58;;;;;;;15.29;29.92;93195.41;4990701;28;20042;-88
2021/12/23 07:25:46;;;;;;;117.47;43.65;;;;;;;15.30;30.83;93189.47;4967507;28;20496;-89
2021/12/23 07:28:11;;;;;;;95.45;40.25;;;;;;;15.24;30.88;93196.13;4979498;28;20445;-90
2021/12/23 07:30:37;;;;;;;110.00;43.70;;;;;;;15.23;30.75;93197.38;4959647;28;20057;-89
2021/12/23 07:33:02;;;;;;;86.50;38.38;;;;;;;15.29;31.27;93198.88;5025733;28;20042;-87
2021/12/23 07:35:28;;;;;;;107.95;48.17;;;;;;;15.31;31.46;93193.66;5013140;28;20046;-89
2021/12/23 07:37:53;;;;;;;104.13;41.60;;;;;;;15.25;31.02;93198.38;4981495;28;20412;-90
2021/12/23 07:40:19;;;;;;;117.07;47.17;;;;;;;15.27;31.45;93190.44;4972967;28;20038;-92
2021/12/23 07:42:54;;;;;;;103.97;45.92;;;;;;;15.31;31.26;93193.66;4964237;28;20073;-92
2021/12/23 07:45:21;;;;;;;117.78;45.03;;;;;;;15.35;31.37;93196.16;4964326;28;20037;-89
2021/12/23 07:47:47;;;;;;;117.47;49.63;;;;;;;15.29;31.53;93196.16;4971641;28;20057;-89
2021/12/23 07:50:12;;;;;;;122.60;55.60;;;;;;;15.36;31.14;93192.19;4959540;28;20030;-91
2021/12/23 07:52:38;;;;;;;119.15;54.55;;;;;;;15.32;31.45;93183.53;4976311;28;20057;-88
2021/12/23 07:55:04;;;;;;;153.30;64.15;;;;;;;15.34;31.46;93186.50;4974835;28;20473;-88
2021/12/23 07:57:29;;;;;;;144.80;64.22;;;;;;;15.27;31.59;93203.31;4980100;28;20042;-89
2021/12/23 07:59:58;;;;;;;143.70;59.83;;;;;;;15.33;31.31;93202.09;4961925;28;20034;-92
2021/12/23 08:02:28;;;;;;;163.70;65.65;;;;;;;15.35;31.18;93207.78;4995827;28;20045;-92
2021/12/23 08:04:56;;;;;;;158.32;64.47;;;;;;;15.34;31.46;93208.28;4997966;28;20042;-92
2021/12/23 08:07:21;;;;;;;131.73;59.13;;;;;;;15.32;31.45;93206.06;4954465;28;20039;-90
2021/12/23 08:09:47;;;;;;;128.57;58.25;;;;;;;15.39;31.54;93202.81;4938848;28;20134;-92
2021/12/23 08:12:12;;;;;;;132.30;58.75;;;;;;;15.35;31.44;93199.63;4906988;29;20040;-91
2021/12/23 08:14:38;;;;;;;126.45;57.65;;;;;;;15.36;31.70;93192.19;4893475;29;20153;-90
2021/12/23 08:17:04;;;;;;;130.45;59.45;;;;;;;15.31;32.12;93185.50;4876813;29;20032;-92
2021/12/23 08:19:29;;;;;;;123.43;52.85;;;;;;;15.35;32.07;93201.59;4888806;29;20051;-90
2021/12/23 08:21:58;;;;;;;130.35;56.33;;;;;;;15.40;31.90;93209.00;4892503;29;20050;-92
2021/12/23 08:24:24;;;;;;;143.82;57.50;;;;;;;15.37;32.31;93196.41;4894536;29;20052;-90
2021/12/23 08:26:54;;;;;;;131.73;60.78;;;;;;;15.38;32.18;93160.47;4909033;29;20095;-91
2021/12/23 08:29:21;;;;;;;146.73;59.20;;;;;;;15.41;32.25;93181.28;4907385;29;20463;-89
2021/12/23 08:31:53;;;;;;;129.65;57.50;;;;;;;15.48;31.83;93173.84;4906832;28;20050;-90
2021/12/23 08:34:23;;;;;;;155.18;61.92;;;;;;;15.49;32.05;93184.25;4926627;28;20043;-90
2021/12/23 08:36:49;;;;;;;141.70;60.65;;;;;;;15.43;32.53;93180.78;4921220;28;20069;-88
2021/12/23 08:39:15;;;;;;;136.25;62.63;;;;;;;15.46;32.42;93168.88;4938319;28;20501;-87
2021/12/23 08:41:41;;;;;;;168.55;63.17;;;;;;;15.43;31.78;93175.31;4953355;28;20137;-90
2021/12/23 08:44:08;;;;;;;133.65;54.13;;;;;;;15.38;31.80;93184.97;4954030;28;20041;-90
2021/12/23 08:46:36;;;;;;;148.13;62.85;;;;;;;15.35;31.79;93180.56;5009276;22;20061;-90
2021/12/23 08:49:01;;;;;;;155.82;68.07;;;;;;;15.35;31.95;93175.09;5034479;22;20041;-89
2021/12/23 08:51:36;;;;;;;148.52;61.42;;;;;;;15.37;32.37;93182.78;5023379;28;20098;-91
2021/12/23 08:54:03;;;;;;;136.93;53.28;;;;;;;15.41;32.29;93183.25;5029847;28;20034;-90
2021/12/23 08:56:30;;;;;;;140.02;59.78;;;;;;;15.40;32.58;93177.06;5038873;28;20738;-89
2021/12/23 08:58:55;;;;;;;153.20;62.53;;;;;;;15.39;32.40;93170.13;5007283;28;20044;-90
2021/12/23 09:01:21;;;;;;;154.95;61.85;;;;;;;15.37;32.42;93188.94;4989928;28;20104;-90
2021/12/23 09:03:46;;;;;;;189.40;68.35;;;;;;;15.50;32.69;93179.53;5017085;28;20033;-90
2021/12/23 09:06:14;;;;;;;163.40;62.30;;;;;;;15.47;32.16;93177.81;4992750;28;20037;-90
2021/12/23 09:08:40;;;;;;;140.90;56.20;;;;;;;15.43;32.23;93183.50;4980428;28;20447;-89
2021/12/23 09:11:05;;;;;;;138.00;59.25;;;;;;;15.39;32.29;93183.00;4980676;28;20107;-90
2021/12/23 09:13:31;;;;;;;150.95;58.38;;;;;;;15.45;32.28;93191.91;5000291;28;20056;-87
2021/12/23 09:15:57;;;;;;;108.40;49.97;;;;;;;15.46;32.33;93182.50;4999831;28;20041;-90
2021/12/23 09:18:23;;;;;;;140.95;56.92;;;;;;;15.37;32.91;93175.31;4996050;28;20096;-89
2021/12/23 09:20:48;;;;;;;132.73;53.42;;;;;;;15.37;32.69;93172.59;4990730;28;20204;-89
2021/12/23 09:23:14;;;;;;;128.30;56.95;;;;;;;15.36;32.65;93160.25;5003873;28;20045;-90
2021/12/23 09:25:40;;;;;;;124.18;56.55;;;;;;;15.44;32.48;93172.09;4993857;28;20068;-90
2021/12/23 09:28:25;;;;;;;130.13;56.53;;;;;;;15.44;32.74;93160.47;4991854;28;20042;-90
2021/12/23 09:33:36;;;;;;;133.57;52.65;;;;;;;15.47;32.84;93126.06;5020779;28;20087;-89
2021/12/23 09:36:01;;;;;;;120.07;50.05;;;;;;;15.46;32.67;93119.13;4992975;28;20049;-89
2021/12/23 09:38:27;;;;;;;109.60;47.70;;;;;;;15.47;32.73;93120.59;4975371;28;20103;-88
2021/12/23 09:41:05;;;;;;;134.27;48.90;;;;;;;15.53;32.61;93135.69;5010357;28;20038;-88
2021/12/23 09:43:31;;;;;;;136.02;54.83;;;;;;;15.44;33.04;93122.34;5007684;28;20037;-89
2021/12/23 09:45:57;;;;;;;132.65;56.22;;;;;;;15.46;32.84;93151.81;5030641;28;20049;-90
2021/12/23 09:48:22;;;;;;;141.30;59.47;;;;;;;15.45;32.77;93140.16;4942552;28;1139198;-88
2021/12/23 09:50:48;;;;;;;139.50;57.55;;;;;;;15.47;32.92;93147.84;5015108;28;20099;-88
2021/12/23 09:53:15;;;;;;;122.30;56.42;;;;;;;15.48;33.19;93144.63;5000055;28;20044;-89
2021/12/23 09:55:41;;;;;;;141.02;61.72;;;;;;;15.52;32.94;93141.66;5017512;28;20045;-90
2021/12/23 09:58:06;;;;;;;136.80;59.72;;;;;;;15.51;32.91;93151.81;5019573;28;20030;-90
2021/12/23 10:00:34;;;;;;;165.48;67.35;;;;;;;15.55;32.86;93165.19;5012973;28;20045;-90
2021/12/23 10:02:59;;;;;;;154.38;63.70;;;;;;;15.57;32.84;93154.56;5002362;28;20039;-90
2021/12/23 10:05:29;;;;;;;185.40;81.28;;;;;;;15.59;32.88;93141.19;5018229;28;20053;-89
2021/12/23 10:07:55;;;;;;;169.45;80.95;;;;;;;15.62;32.83;93148.34;4982477;28;20519;-90
2021/12/23 10:10:29;;;;;;;166.98;74.93;;;;;;;15.63;33.07;93139.66;4989343;28;20057;-90
2021/12/23 10:32:16;;;;;;;296.60;163.55;;;;;;;15.61;33.12;93089.63;5003840;28;20180;-92
2021/12/23 10:37:21;;;;;;;273.15;152.70;;;;;;;15.61;33.53;93086.91;5005474;28;20053;-89
2021/12/23 10:39:47;;;;;;;;;;;;;;;15.65;33.25;93084.66;5014412;28;20124;-92
2021/12/23 10:42:17;;;;;;;238.52;126.43;;;;;;;15.67;33.25;93077.47;5014969;28;19955;-90
2021/12/23 10:44:55;;;;;;;236.05;139.07;;;;;;;15.65;33.38;93077.22;5015942;28;20057;-90
2021/12/23 10:47:36;;;;;;;222.02;122.32;;;;;;;15.71;33.28;93082.66;4979926;28;20512;-91
2021/12/23 10:53:12;;;;;;;243.50;123.97;;;;;;;15.64;33.44;93064.84;5010089;28;20558;-92
2021/12/23 10:58:24;;;;;;;209.18;113.30;;;;;;;15.71;33.55;93067.06;5013219;28;20116;-89
2021/12/23 11:00:54;;;;;;;189.13;109.07;;;;;;;15.66;33.59;93064.34;5003507;28;20038;-90
2021/12/23 11:06:15;;;;;;;171.82;100.65;;;;;;;15.65;33.44;93047.25;5018983;28;20059;-88
2021/12/23 11:28:08;;;;;;;150.98;86.05;;;;;;;15.91;33.57;93041.47;5018383;28;20051;-89
2021/12/23 11:39:06;;;;;;;143.85;79.72;;;;;;;15.92;33.52;93031.28;5018647;28;20475;-90
2021/12/23 11:41:36;;;;;;;142.73;84.18;;;;;;;15.89;33.49;93035.03;5004746;28;20041;-91
2021/12/23 11:44:04;;;;;;;132.05;80.53;;;;;;;15.90;33.55;93012.72;4981511;28;20065;-90
2021/12/23 11:46:37;;;;;;;128.75;77.10;;;;;;;15.88;33.36;93004.31;4996303;28;20053;-90
2021/12/23 11:49:07;;;;;;;117.68;74.93;;;;;;;15.88;33.49;92998.84;5015664;28;20042;-91
2021/12/23 11:51:42;;;;;;;128.48;70.43;;;;;;;15.86;33.58;93008.78;5016565;28;20095;-93
2021/12/23 11:54:13;;;;;;;104.82;62.65;;;;;;;15.92;33.49;92993.13;4997117;28;20037;-90
2021/12/23 11:56:44;;;;;;;101.60;62.92;;;;;;;15.83;33.80;92987.97;4982317;28;20064;-91
2021/12/23 11:59:10;;;;;;;125.00;67.60;;;;;;;15.81;33.75;92977.56;5022820;28;20065;-91
2021/12/23 12:01:44;;;;;;;158.70;75.43;;;;;;;15.79;33.58;92993.72;5029096;28;20045;-89
2021/12/23 12:04:10;;;;;;;130.20;65.10;;;;;;;15.82;33.37;93000.84;5002002;28;20045;-90
2021/12/23 12:06:35;;;;;;;137.38;66.93;;;;;;;15.83;33.65;92988.72;4996944;28;20083;-90
2021/12/23 12:09:15;;;;;;;137.93;64.13;;;;;;;15.85;33.86;92996.38;5018063;28;20045;-90
2021/12/23 12:11:42;;;;;;;118.43;62.85;;;;;;;15.80;33.87;92984.28;4996684;28;20543;-92
2021/12/23 12:14:38;;;;;;;114.75;59.28;;;;;;;15.78;33.78;92994.94;5013594;28;20075;-90
2021/12/23 12:17:25;;;;;;;137.07;62.80;;;;;;;15.80;33.96;93002.63;5020233;28;20045;-91
2021/12/23 12:19:52;;;;;;;134.80;68.20;;;;;;;15.84;33.84;93000.34;5028696;28;20044;-93
2021/12/23 12:22:55;;;;;;;183.90;83.22;;;;;;;15.81;33.86;92993.19;5011768;28;20415;-89
2021/12/23 12:25:25;;;;;;;152.43;82.25;;;;;;;15.84;33.70;93003.81;5004104;28;20088;-91
2021/12/23 12:27:51;;;;;;;168.60;88.43;;;;;;;15.82;33.68;92995.41;5025999;28;20092;-91
2021/12/23 12:30:18;;;;;;;189.82;92.35;;;;;;;15.89;34.02;92983.97;5028632;28;20033;-90
2021/12/23 12:32:44;;;;;;;220.65;108.10;;;;;;;15.88;33.85;92979.75;5014322;28;20046;-89